sensor_id;sensor_type;location;lat;lon;timestamp;temperature;humidity
29453;DHT22;16424;50.956;5.320;2023-01-29T00:01:46;-0.40;99.90
29453;DHT22;16424;50.956;5.320;2023-01-29T00:04:12;-0.50;99.90
29453;DHT22;16424;50.956;5.320;2023-01-29T00:06:37;-0.50;99.90
29453;DHT22;16424;50.956;5.320;2023-01-29T00:09:04;-0.50;99.90
29453;DHT22;16424;50.956;5.320;2023-01-29T00:11:30;-0.60;99.90
29453;DHT22;16424;50.956;5.320;2023-01-29T00:13:56;-0.70;99.90
29453;DHT22;16424;50.956;5.320;2023-01-29T00:16:23;-0.70;99.90
29453;DHT22;16424;50.956;5.320;2023-01-29T00:18:49;-0.80;99.90
29453;DHT22;16424;50.956;5.320;2023-01-29T00:21:16;-0.80;99.90
29453;DHT22;16424;50.956;5.320;2023-01-29T00:23:42;-0.90;99.90
29453;DHT22;16424;50.956;5.320;2023-01-29T00:26:08;-1.00;99.90
29453;DHT22;16424;50.956;5.320;2023-01-29T00:28:34;-1.00;99.90
29453;DHT22;16424;50.956;5.320;2023-01-29T00:31:11;-0.90;99.90
29453;DHT22;16424;50.956;5.320;2023-01-29T00:33:38;-0.80;99.90
29453;DHT22;16424;50.956;5.320;2023-01-29T00:36:09;-0.70;99.90
29453;DHT22;16424;50.956;5.320;2023-01-29T00:38:36;-0.70;99.90
29453;DHT22;16424;50.956;5.320;2023-01-29T00:41:13;-0.70;99.90
29453;DHT22;16424;50.956;5.320;2023-01-29T00:43:58;-0.70;99.90
29453;DHT22;16424;50.956;5.320;2023-01-29T00:46:42;-0.80;99.90
29453;DHT22;16424;50.956;5.320;2023-01-29T00:49:08;-0.90;99.90
29453;DHT22;16424;50.956;5.320;2023-01-29T00:51:35;-0.90;99.90
29453;DHT22;16424;50.956;5.320;2023-01-29T00:54:01;-0.90;99.90
29453;DHT22;16424;50.956;5.320;2023-01-29T00:56:29;-0.90;99.90
29453;DHT22;16424;50.956;5.320;2023-01-29T00:58:58;-0.80;99.90
29453;DHT22;16424;50.956;5.320;2023-01-29T01:01:24;-0.90;99.90
29453;DHT22;16424;50.956;5.320;2023-01-29T01:04:10;-1.00;99.90
29453;DHT22;16424;50.956;5.320;2023-01-29T01:06:37;-1.00;99.90
29453;DHT22;16424;50.956;5.320;2023-01-29T01:09:04;-1.00;99.90
29453;DHT22;16424;50.956;5.320;2023-01-29T01:11:48;-1.10;99.90
29453;DHT22;16424;50.956;5.320;2023-01-29T01:14:14;-1.20;99.90
29453;DHT22;16424;50.956;5.320;2023-01-29T01:16:39;-1.10;99.90
29453;DHT22;16424;50.956;5.320;2023-01-29T01:19:05;-1.10;99.90
29453;DHT22;16424;50.956;5.320;2023-01-29T01:21:32;-1.10;99.90
29453;DHT22;16424;50.956;5.320;2023-01-29T01:23:57;-1.20;99.90
29453;DHT22;16424;50.956;5.320;2023-01-29T01:26:23;-1.20;99.90
29453;DHT22;16424;50.956;5.320;2023-01-29T01:28:49;-1.00;99.90
29453;DHT22;16424;50.956;5.320;2023-01-29T01:31:14;-1.10;99.90
29453;DHT22;16424;50.956;5.320;2023-01-29T01:33:40;-1.10;99.90
29453;DHT22;16424;50.956;5.320;2023-01-29T01:36:07;-0.90;99.90
29453;DHT22;16424;50.956;5.320;2023-01-29T01:38:36;-0.90;99.90
29453;DHT22;16424;50.956;5.320;2023-01-29T01:41:16;-1.00;99.90
29453;DHT22;16424;50.956;5.320;2023-01-29T01:44:48;-1.10;99.90
29453;DHT22;16424;50.956;5.320;2023-01-29T01:46:37;-1.00;99.90
29453;DHT22;16424;50.956;5.320;2023-01-29T01:49:04;-1.00;99.90
29453;DHT22;16424;50.956;5.320;2023-01-29T01:51:36;-1.20;99.90
29453;DHT22;16424;50.956;5.320;2023-01-29T01:54:10;-1.20;99.90
29453;DHT22;16424;50.956;5.320;2023-01-29T01:56:44;-1.30;99.90
29453;DHT22;16424;50.956;5.320;2023-01-29T01:59:16;-1.40;99.90
29453;DHT22;16424;50.956;5.320;2023-01-29T02:01:45;-1.40;99.90
29453;DHT22;16424;50.956;5.320;2023-01-29T02:04:19;-1.40;99.90
29453;DHT22;16424;50.956;5.320;2023-01-29T02:07:05;-1.30;99.90
29453;DHT22;16424;50.956;5.320;2023-01-29T02:09:57;-1.30;99.90
29453;DHT22;16424;50.956;5.320;2023-01-29T02:12:24;-1.30;99.90
29453;DHT22;16424;50.956;5.320;2023-01-29T02:14:51;-1.40;99.90
29453;DHT22;16424;50.956;5.320;2023-01-29T02:17:18;-1.40;99.90
29453;DHT22;16424;50.956;5.320;2023-01-29T02:30:35;-1.50;99.90
29453;DHT22;16424;50.956;5.320;2023-01-29T02:33:23;-1.60;99.90
29453;DHT22;16424;50.956;5.320;2023-01-29T02:36:03;-1.80;99.90
29453;DHT22;16424;50.956;5.320;2023-01-29T02:41:58;-1.70;99.90
29453;DHT22;16424;50.956;5.320;2023-01-29T02:44:41;-1.70;99.90
29453;DHT22;16424;50.956;5.320;2023-01-29T02:47:39;-1.50;99.90
29453;DHT22;16424;50.956;5.320;2023-01-29T02:50:20;-1.40;99.90
29453;DHT22;16424;50.956;5.320;2023-01-29T02:52:57;-1.40;99.90
29453;DHT22;16424;50.956;5.320;2023-01-29T02:55:46;-1.40;99.90
29453;DHT22;16424;50.956;5.320;2023-01-29T02:58:24;-1.40;99.90
29453;DHT22;16424;50.956;5.320;2023-01-29T03:00:55;-1.50;99.90
29453;DHT22;16424;50.956;5.320;2023-01-29T03:03:28;-1.50;99.90
29453;DHT22;16424;50.956;5.320;2023-01-29T03:06:20;-1.50;99.90
29453;DHT22;16424;50.956;5.320;2023-01-29T03:08:55;-1.50;99.90
29453;DHT22;16424;50.956;5.320;2023-01-29T03:11:21;-1.60;99.90
29453;DHT22;16424;50.956;5.320;2023-01-29T03:16:35;-1.60;99.90
29453;DHT22;16424;50.956;5.320;2023-01-29T03:19:13;-1.60;99.90
29453;DHT22;16424;50.956;5.320;2023-01-29T03:21:46;-1.50;99.90
29453;DHT22;16424;50.956;5.320;2023-01-29T03:24:17;-1.50;99.90
29453;DHT22;16424;50.956;5.320;2023-01-29T03:27:06;-1.60;99.90
29453;DHT22;16424;50.956;5.320;2023-01-29T03:29:53;-1.60;99.90
29453;DHT22;16424;50.956;5.320;2023-01-29T03:32:38;-1.50;99.90
29453;DHT22;16424;50.956;5.320;2023-01-29T03:35:06;-1.50;99.90
29453;DHT22;16424;50.956;5.320;2023-01-29T03:37:42;-1.40;99.90
29453;DHT22;16424;50.956;5.320;2023-01-29T03:40:11;-1.40;99.90
29453;DHT22;16424;50.956;5.320;2023-01-29T03:42:58;-1.50;99.90
29453;DHT22;16424;50.956;5.320;2023-01-29T03:56:04;-1.40;99.90
29453;DHT22;16424;50.956;5.320;2023-01-29T03:58:41;-1.40;99.90
29453;DHT22;16424;50.956;5.320;2023-01-29T04:01:16;-1.50;99.90
29453;DHT22;16424;50.956;5.320;2023-01-29T04:06:32;-1.60;99.90
29453;DHT22;16424;50.956;5.320;2023-01-29T04:11:41;-1.70;99.90
29453;DHT22;16424;50.956;5.320;2023-01-29T04:14:08;-1.70;99.90
29453;DHT22;16424;50.956;5.320;2023-01-29T04:16:37;-1.80;99.90
29453;DHT22;16424;50.956;5.320;2023-01-29T04:19:05;-1.90;99.90
29453;DHT22;16424;50.956;5.320;2023-01-29T04:21:31;-2.00;99.90
29453;DHT22;16424;50.956;5.320;2023-01-29T04:23:57;-2.00;99.90
29453;DHT22;16424;50.956;5.320;2023-01-29T04:29:20;-1.70;99.90
29453;DHT22;16424;50.956;5.320;2023-01-29T04:31:59;-1.60;99.90
29453;DHT22;16424;50.956;5.320;2023-01-29T04:34:55;-1.60;99.90
29453;DHT22;16424;50.956;5.320;2023-01-29T04:40:19;-1.60;99.90
29453;DHT22;16424;50.956;5.320;2023-01-29T04:43:03;-1.60;99.90
29453;DHT22;16424;50.956;5.320;2023-01-29T04:48:23;-1.60;99.90
29453;DHT22;16424;50.956;5.320;2023-01-29T04:51:11;-1.70;99.90
29453;DHT22;16424;50.956;5.320;2023-01-29T04:54:11;-1.70;99.90
29453;DHT22;16424;50.956;5.320;2023-01-29T04:56:41;-1.80;99.90
29453;DHT22;16424;50.956;5.320;2023-01-29T04:59:16;-1.80;99.90
29453;DHT22;16424;50.956;5.320;2023-01-29T05:01:45;-1.90;99.90
29453;DHT22;16424;50.956;5.320;2023-01-29T05:04:13;-1.80;99.90
29453;DHT22;16424;50.956;5.320;2023-01-29T05:06:40;-1.90;99.90
29453;DHT22;16424;50.956;5.320;2023-01-29T05:09:07;-1.90;99.90
29453;DHT22;16424;50.956;5.320;2023-01-29T05:11:34;-1.90;99.90
29453;DHT22;16424;50.956;5.320;2023-01-29T05:14:03;-1.90;99.90
29453;DHT22;16424;50.956;5.320;2023-01-29T05:16:37;-1.90;99.90
29453;DHT22;16424;50.956;5.320;2023-01-29T05:19:16;-2.00;99.90
29453;DHT22;16424;50.956;5.320;2023-01-29T05:21:47;-2.00;99.90
29453;DHT22;16424;50.956;5.320;2023-01-29T05:24:24;-1.90;99.90
29453;DHT22;16424;50.956;5.320;2023-01-29T05:26:53;-1.80;99.90
29453;DHT22;16424;50.956;5.320;2023-01-29T05:29:44;-1.70;99.90
29453;DHT22;16424;50.956;5.320;2023-01-29T05:32:10;-1.60;99.90
29453;DHT22;16424;50.956;5.320;2023-01-29T05:34:36;-1.50;99.90
29453;DHT22;16424;50.956;5.320;2023-01-29T05:37:02;-1.50;99.90
29453;DHT22;16424;50.956;5.320;2023-01-29T05:39:27;-1.50;99.90
29453;DHT22;16424;50.956;5.320;2023-01-29T05:41:53;-1.50;99.90
29453;DHT22;16424;50.956;5.320;2023-01-29T05:44:19;-1.50;99.90
29453;DHT22;16424;50.956;5.320;2023-01-29T05:46:45;-1.40;99.90
29453;DHT22;16424;50.956;5.320;2023-01-29T05:49:11;-1.30;99.90
29453;DHT22;16424;50.956;5.320;2023-01-29T05:51:36;-1.20;99.90
29453;DHT22;16424;50.956;5.320;2023-01-29T05:54:02;-1.20;99.90
29453;DHT22;16424;50.956;5.320;2023-01-29T05:56:28;-1.20;99.90
29453;DHT22;16424;50.956;5.320;2023-01-29T05:58:54;-1.10;99.90
29453;DHT22;16424;50.956;5.320;2023-01-29T06:01:22;-1.00;99.90
29453;DHT22;16424;50.956;5.320;2023-01-29T06:03:48;-1.00;99.90
29453;DHT22;16424;50.956;5.320;2023-01-29T06:06:17;-0.90;99.90
29453;DHT22;16424;50.956;5.320;2023-01-29T06:08:43;-0.90;99.90
29453;DHT22;16424;50.956;5.320;2023-01-29T06:11:13;-0.90;99.90
29453;DHT22;16424;50.956;5.320;2023-01-29T06:13:39;-0.90;99.90
29453;DHT22;16424;50.956;5.320;2023-01-29T06:16:09;-1.00;99.90
29453;DHT22;16424;50.956;5.320;2023-01-29T06:18:35;-0.90;99.90
29453;DHT22;16424;50.956;5.320;2023-01-29T06:21:02;-0.80;99.90
29453;DHT22;16424;50.956;5.320;2023-01-29T06:23:29;-0.70;99.90
29453;DHT22;16424;50.956;5.320;2023-01-29T06:25:59;-0.50;99.90
29453;DHT22;16424;50.956;5.320;2023-01-29T06:28:25;-0.50;99.90
29453;DHT22;16424;50.956;5.320;2023-01-29T06:30:51;-0.40;99.90
29453;DHT22;16424;50.956;5.320;2023-01-29T06:33:16;-0.40;99.90
29453;DHT22;16424;50.956;5.320;2023-01-29T06:35:42;-0.30;99.90
29453;DHT22;16424;50.956;5.320;2023-01-29T06:38:08;-0.20;99.90
29453;DHT22;16424;50.956;5.320;2023-01-29T06:40:34;-0.10;99.90
29453;DHT22;16424;50.956;5.320;2023-01-29T06:43:00;-0.10;99.90
29453;DHT22;16424;50.956;5.320;2023-01-29T06:45:26;0.00;99.90
29453;DHT22;16424;50.956;5.320;2023-01-29T06:47:51;0.00;99.90
29453;DHT22;16424;50.956;5.320;2023-01-29T06:50:17;0.00;99.90
29453;DHT22;16424;50.956;5.320;2023-01-29T06:52:43;0.00;99.90
29453;DHT22;16424;50.956;5.320;2023-01-29T06:55:08;0.00;99.90
29453;DHT22;16424;50.956;5.320;2023-01-29T06:57:34;-0.20;99.90
29453;DHT22;16424;50.956;5.320;2023-01-29T07:00:00;-0.20;99.90
29453;DHT22;16424;50.956;5.320;2023-01-29T07:02:25;-0.10;99.90
29453;DHT22;16424;50.956;5.320;2023-01-29T07:04:51;-0.10;99.90
29453;DHT22;16424;50.956;5.320;2023-01-29T07:07:17;0.00;99.90
29453;DHT22;16424;50.956;5.320;2023-01-29T07:09:43;0.00;99.90
29453;DHT22;16424;50.956;5.320;2023-01-29T07:12:09;0.00;99.90
29453;DHT22;16424;50.956;5.320;2023-01-29T07:14:35;0.10;99.90
29453;DHT22;16424;50.956;5.320;2023-01-29T07:17:01;0.10;99.90
29453;DHT22;16424;50.956;5.320;2023-01-29T07:19:27;0.00;99.90
29453;DHT22;16424;50.956;5.320;2023-01-29T07:21:52;-0.10;99.90
29453;DHT22;16424;50.956;5.320;2023-01-29T07:24:18;0.10;99.90
29453;DHT22;16424;50.956;5.320;2023-01-29T07:26:44;0.10;99.90
29453;DHT22;16424;50.956;5.320;2023-01-29T07:29:10;-0.10;99.90
29453;DHT22;16424;50.956;5.320;2023-01-29T07:31:35;0.00;99.90
29453;DHT22;16424;50.956;5.320;2023-01-29T07:34:01;0.10;99.90
29453;DHT22;16424;50.956;5.320;2023-01-29T07:36:27;0.30;99.90
29453;DHT22;16424;50.956;5.320;2023-01-29T07:38:53;0.30;99.90
29453;DHT22;16424;50.956;5.320;2023-01-29T07:41:18;0.10;99.90
29453;DHT22;16424;50.956;5.320;2023-01-29T07:43:44;0.00;99.90
29453;DHT22;16424;50.956;5.320;2023-01-29T07:46:10;0.10;99.90
29453;DHT22;16424;50.956;5.320;2023-01-29T07:48:35;0.20;99.90
29453;DHT22;16424;50.956;5.320;2023-01-29T07:51:01;0.30;99.90
29453;DHT22;16424;50.956;5.320;2023-01-29T07:53:28;0.40;99.90
29453;DHT22;16424;50.956;5.320;2023-01-29T07:55:54;0.60;99.90
29453;DHT22;16424;50.956;5.320;2023-01-29T07:58:19;0.60;99.90
29453;DHT22;16424;50.956;5.320;2023-01-29T08:00:45;0.50;99.90
29453;DHT22;16424;50.956;5.320;2023-01-29T08:03:13;0.40;99.90
29453;DHT22;16424;50.956;5.320;2023-01-29T08:05:40;0.50;99.90
29453;DHT22;16424;50.956;5.320;2023-01-29T08:08:06;0.70;99.90
29453;DHT22;16424;50.956;5.320;2023-01-29T08:10:33;0.70;99.90
29453;DHT22;16424;50.956;5.320;2023-01-29T08:13:00;0.80;99.90
29453;DHT22;16424;50.956;5.320;2023-01-29T08:15:26;0.70;99.90
29453;DHT22;16424;50.956;5.320;2023-01-29T08:17:55;0.80;99.90
29453;DHT22;16424;50.956;5.320;2023-01-29T08:20:22;0.70;99.90
29453;DHT22;16424;50.956;5.320;2023-01-29T08:22:47;0.80;99.90
29453;DHT22;16424;50.956;5.320;2023-01-29T08:25:14;0.80;99.90
29453;DHT22;16424;50.956;5.320;2023-01-29T08:27:40;0.70;99.90
29453;DHT22;16424;50.956;5.320;2023-01-29T08:30:07;0.70;99.90
29453;DHT22;16424;50.956;5.320;2023-01-29T08:32:33;0.70;99.90
29453;DHT22;16424;50.956;5.320;2023-01-29T08:34:59;0.80;99.90
29453;DHT22;16424;50.956;5.320;2023-01-29T08:37:25;0.90;99.90
29453;DHT22;16424;50.956;5.320;2023-01-29T08:39:50;1.10;99.90
29453;DHT22;16424;50.956;5.320;2023-01-29T08:42:16;1.30;99.90
29453;DHT22;16424;50.956;5.320;2023-01-29T08:44:41;1.10;99.90
29453;DHT22;16424;50.956;5.320;2023-01-29T08:47:07;0.80;99.90
29453;DHT22;16424;50.956;5.320;2023-01-29T08:49:35;0.80;99.90
29453;DHT22;16424;50.956;5.320;2023-01-29T08:52:01;0.70;99.90
29453;DHT22;16424;50.956;5.320;2023-01-29T08:54:27;0.70;99.90
29453;DHT22;16424;50.956;5.320;2023-01-29T08:56:52;0.70;99.90
29453;DHT22;16424;50.956;5.320;2023-01-29T08:59:18;0.70;99.90
29453;DHT22;16424;50.956;5.320;2023-01-29T09:01:44;0.60;99.90
29453;DHT22;16424;50.956;5.320;2023-01-29T09:04:10;0.50;99.90
29453;DHT22;16424;50.956;5.320;2023-01-29T09:06:39;0.50;99.90
29453;DHT22;16424;50.956;5.320;2023-01-29T09:09:05;0.60;99.90
29453;DHT22;16424;50.956;5.320;2023-01-29T09:11:31;0.80;99.90
29453;DHT22;16424;50.956;5.320;2023-01-29T09:13:56;1.00;99.90
29453;DHT22;16424;50.956;5.320;2023-01-29T09:16:22;1.10;99.90
29453;DHT22;16424;50.956;5.320;2023-01-29T09:18:47;1.10;99.90
29453;DHT22;16424;50.956;5.320;2023-01-29T09:21:13;1.10;99.90
29453;DHT22;16424;50.956;5.320;2023-01-29T09:23:39;1.20;99.90
29453;DHT22;16424;50.956;5.320;2023-01-29T09:26:06;1.30;99.90
29453;DHT22;16424;50.956;5.320;2023-01-29T09:28:34;1.10;99.90
29453;DHT22;16424;50.956;5.320;2023-01-29T09:31:01;1.00;99.90
29453;DHT22;16424;50.956;5.320;2023-01-29T09:33:27;1.10;99.90
29453;DHT22;16424;50.956;5.320;2023-01-29T09:35:53;1.10;99.90
29453;DHT22;16424;50.956;5.320;2023-01-29T09:38:19;1.20;99.90
29453;DHT22;16424;50.956;5.320;2023-01-29T09:40:59;1.30;99.90
29453;DHT22;16424;50.956;5.320;2023-01-29T09:46:11;1.50;99.90
29453;DHT22;16424;50.956;5.320;2023-01-29T09:48:40;1.50;99.90
29453;DHT22;16424;50.956;5.320;2023-01-29T09:56:44;1.70;99.90
29453;DHT22;16424;50.956;5.320;2023-01-29T09:59:12;2.00;99.90
29453;DHT22;16424;50.956;5.320;2023-01-29T10:01:44;2.20;99.90
29453;DHT22;16424;50.956;5.320;2023-01-29T10:07:45;2.40;99.90
29453;DHT22;16424;50.956;5.320;2023-01-29T10:10:34;2.60;99.90
29453;DHT22;16424;50.956;5.320;2023-01-29T10:13:28;2.60;99.90
29453;DHT22;16424;50.956;5.320;2023-01-29T10:16:00;2.80;99.90
29453;DHT22;16424;50.956;5.320;2023-01-29T10:24:40;2.60;99.90
29453;DHT22;16424;50.956;5.320;2023-01-29T10:27:16;2.50;99.90
29453;DHT22;16424;50.956;5.320;2023-01-29T10:29:44;2.60;99.90
29453;DHT22;16424;50.956;5.320;2023-01-29T10:32:17;2.80;99.90
29453;DHT22;16424;50.956;5.320;2023-01-29T10:35:03;2.70;99.90
29453;DHT22;16424;50.956;5.320;2023-01-29T10:37:40;2.80;99.90
29453;DHT22;16424;50.956;5.320;2023-01-29T10:40:26;3.00;99.90
29453;DHT22;16424;50.956;5.320;2023-01-29T10:43:14;2.80;99.90
29453;DHT22;16424;50.956;5.320;2023-01-29T10:48:54;2.60;99.90
29453;DHT22;16424;50.956;5.320;2023-01-29T11:02:44;3.10;99.90
29453;DHT22;16424;50.956;5.320;2023-01-29T11:05:29;3.10;99.90
29453;DHT22;16424;50.956;5.320;2023-01-29T11:08:15;3.30;99.90
29453;DHT22;16424;50.956;5.320;2023-01-29T11:13:21;3.20;99.90
29453;DHT22;16424;50.956;5.320;2023-01-29T11:15:51;3.40;99.90
29453;DHT22;16424;50.956;5.320;2023-01-29T11:18:17;3.60;99.90
29453;DHT22;16424;50.956;5.320;2023-01-29T11:20:44;3.40;99.90
29453;DHT22;16424;50.956;5.320;2023-01-29T11:23:31;3.20;99.90
29453;DHT22;16424;50.956;5.320;2023-01-29T11:25:58;3.30;99.90
29453;DHT22;16424;50.956;5.320;2023-01-29T11:28:44;3.30;99.90
29453;DHT22;16424;50.956;5.320;2023-01-29T11:33:45;3.40;99.90
29453;DHT22;16424;50.956;5.320;2023-01-29T11:36:33;3.50;99.90
29453;DHT22;16424;50.956;5.320;2023-01-29T11:39:19;3.80;99.90
29453;DHT22;16424;50.956;5.320;2023-01-29T11:41:58;3.60;99.90
29453;DHT22;16424;50.956;5.320;2023-01-29T11:49:54;3.40;99.90
29453;DHT22;16424;50.956;5.320;2023-01-29T11:52:26;3.40;99.90
29453;DHT22;16424;50.956;5.320;2023-01-29T11:55:01;3.40;99.90
29453;DHT22;16424;50.956;5.320;2023-01-29T11:57:34;3.50;99.90
29453;DHT22;16424;50.956;5.320;2023-01-29T12:00:25;3.30;99.90
29453;DHT22;16424;50.956;5.320;2023-01-29T12:03:11;3.40;99.90
29453;DHT22;16424;50.956;5.320;2023-01-29T12:05:40;3.70;99.90
29453;DHT22;16424;50.956;5.320;2023-01-29T12:08:15;3.80;99.90
29453;DHT22;16424;50.956;5.320;2023-01-29T12:10:41;3.80;99.90
29453;DHT22;16424;50.956;5.320;2023-01-29T12:15:44;4.00;99.90
29453;DHT22;16424;50.956;5.320;2023-01-29T12:18:29;4.00;99.90
29453;DHT22;16424;50.956;5.320;2023-01-29T12:21:09;4.00;99.90
29453;DHT22;16424;50.956;5.320;2023-01-29T12:26:10;3.90;99.90
29453;DHT22;16424;50.956;5.320;2023-01-29T12:29:06;4.00;99.90
29453;DHT22;16424;50.956;5.320;2023-01-29T12:37:59;4.10;99.90
29453;DHT22;16424;50.956;5.320;2023-01-29T12:40:27;4.20;99.90
29453;DHT22;16424;50.956;5.320;2023-01-29T12:43:00;3.90;99.90
29453;DHT22;16424;50.956;5.320;2023-01-29T12:45:29;3.80;99.90
29453;DHT22;16424;50.956;5.320;2023-01-29T12:48:01;3.80;99.90
29453;DHT22;16424;50.956;5.320;2023-01-29T12:50:31;4.00;99.90
29453;DHT22;16424;50.956;5.320;2023-01-29T12:55:39;4.20;99.90
29453;DHT22;16424;50.956;5.320;2023-01-29T12:58:15;4.20;99.90
29453;DHT22;16424;50.956;5.320;2023-01-29T13:00:46;4.30;99.90
29453;DHT22;16424;50.956;5.320;2023-01-29T13:03:24;4.50;99.90
29453;DHT22;16424;50.956;5.320;2023-01-29T13:06:01;4.50;99.90
29453;DHT22;16424;50.956;5.320;2023-01-29T13:08:36;4.50;99.90
29453;DHT22;16424;50.956;5.320;2023-01-29T13:11:08;4.40;99.90
29453;DHT22;16424;50.956;5.320;2023-01-29T13:13:49;4.40;99.90
29453;DHT22;16424;50.956;5.320;2023-01-29T13:16:20;4.20;99.90
29453;DHT22;16424;50.956;5.320;2023-01-29T13:18:59;4.10;99.90
29453;DHT22;16424;50.956;5.320;2023-01-29T13:21:32;4.20;99.90
29453;DHT22;16424;50.956;5.320;2023-01-29T13:24:03;4.20;99.90
29453;DHT22;16424;50.956;5.320;2023-01-29T13:26:30;4.30;99.90
29453;DHT22;16424;50.956;5.320;2023-01-29T13:28:57;4.50;99.90
29453;DHT22;16424;50.956;5.320;2023-01-29T13:31:49;4.20;99.90
29453;DHT22;16424;50.956;5.320;2023-01-29T13:34:20;4.20;99.90
29453;DHT22;16424;50.956;5.320;2023-01-29T13:36:51;4.30;99.90
29453;DHT22;16424;50.956;5.320;2023-01-29T13:39:31;4.40;99.90
29453;DHT22;16424;50.956;5.320;2023-01-29T13:41:59;4.30;99.90
29453;DHT22;16424;50.956;5.320;2023-01-29T13:47:04;4.30;99.90
29453;DHT22;16424;50.956;5.320;2023-01-29T13:49:36;4.40;99.90
29453;DHT22;16424;50.956;5.320;2023-01-29T13:54:58;4.30;99.90
29453;DHT22;16424;50.956;5.320;2023-01-29T14:07:59;4.50;99.90
29453;DHT22;16424;50.956;5.320;2023-01-29T14:10:35;4.60;99.90
29453;DHT22;16424;50.956;5.320;2023-01-29T14:18:19;4.50;99.90
29453;DHT22;16424;50.956;5.320;2023-01-29T14:31:41;4.60;99.90
29453;DHT22;16424;50.956;5.320;2023-01-29T14:34:31;4.50;99.90
29453;DHT22;16424;50.956;5.320;2023-01-29T14:37:17;4.70;99.90
29453;DHT22;16424;50.956;5.320;2023-01-29T14:39:51;4.60;99.90
29453;DHT22;16424;50.956;5.320;2023-01-29T14:42:23;4.70;99.90
29453;DHT22;16424;50.956;5.320;2023-01-29T14:49:58;4.80;99.90
29453;DHT22;16424;50.956;5.320;2023-01-29T14:52:41;4.70;99.90
29453;DHT22;16424;50.956;5.320;2023-01-29T14:55:29;4.80;99.90
29453;DHT22;16424;50.956;5.320;2023-01-29T14:57:57;4.60;99.90
29453;DHT22;16424;50.956;5.320;2023-01-29T15:02:54;4.60;99.90
29453;DHT22;16424;50.956;5.320;2023-01-29T15:05:26;4.60;99.90
29453;DHT22;16424;50.956;5.320;2023-01-29T15:08:26;4.70;99.90
29453;DHT22;16424;50.956;5.320;2023-01-29T15:10:59;4.70;99.90
29453;DHT22;16424;50.956;5.320;2023-01-29T15:13:59;4.70;99.90
29453;DHT22;16424;50.956;5.320;2023-01-29T15:19:14;4.80;99.90
29453;DHT22;16424;50.956;5.320;2023-01-29T15:22:08;4.80;99.90
29453;DHT22;16424;50.956;5.320;2023-01-29T15:24:35;4.70;99.90
29453;DHT22;16424;50.956;5.320;2023-01-29T15:27:01;4.70;99.90
29453;DHT22;16424;50.956;5.320;2023-01-29T15:29:27;4.70;99.90
29453;DHT22;16424;50.956;5.320;2023-01-29T15:31:55;4.60;99.90
29453;DHT22;16424;50.956;5.320;2023-01-29T15:34:21;4.60;99.90
29453;DHT22;16424;50.956;5.320;2023-01-29T15:36:48;4.50;99.90
29453;DHT22;16424;50.956;5.320;2023-01-29T15:39:15;4.70;99.90
29453;DHT22;16424;50.956;5.320;2023-01-29T15:41:41;4.60;99.90
29453;DHT22;16424;50.956;5.320;2023-01-29T15:44:14;4.50;99.90
29453;DHT22;16424;50.956;5.320;2023-01-29T15:46:43;4.50;99.90
29453;DHT22;16424;50.956;5.320;2023-01-29T15:49:20;4.50;99.90
29453;DHT22;16424;50.956;5.320;2023-01-29T15:51:54;4.50;99.90
29453;DHT22;16424;50.956;5.320;2023-01-29T15:54:21;4.60;99.90
29453;DHT22;16424;50.956;5.320;2023-01-29T15:56:49;4.60;99.90
29453;DHT22;16424;50.956;5.320;2023-01-29T15:59:53;4.60;99.90
29453;DHT22;16424;50.956;5.320;2023-01-29T16:02:35;4.50;99.90
29453;DHT22;16424;50.956;5.320;2023-01-29T16:05:05;4.40;99.90
29453;DHT22;16424;50.956;5.320;2023-01-29T16:07:31;4.50;99.90
29453;DHT22;16424;50.956;5.320;2023-01-29T16:09:57;4.40;99.90
29453;DHT22;16424;50.956;5.320;2023-01-29T16:12:24;4.30;99.90
29453;DHT22;16424;50.956;5.320;2023-01-29T16:14:50;4.30;99.90
29453;DHT22;16424;50.956;5.320;2023-01-29T16:17:33;4.40;99.90
29453;DHT22;16424;50.956;5.320;2023-01-29T16:20:05;4.40;99.90
29453;DHT22;16424;50.956;5.320;2023-01-29T16:22:33;4.60;99.90
29453;DHT22;16424;50.956;5.320;2023-01-29T16:25:18;4.60;99.90
29453;DHT22;16424;50.956;5.320;2023-01-29T16:27:43;4.50;99.90
29453;DHT22;16424;50.956;5.320;2023-01-29T16:30:14;4.40;99.90
29453;DHT22;16424;50.956;5.320;2023-01-29T16:32:40;4.40;99.90
29453;DHT22;16424;50.956;5.320;2023-01-29T16:35:11;4.40;99.90
29453;DHT22;16424;50.956;5.320;2023-01-29T16:37:37;4.40;99.90
29453;DHT22;16424;50.956;5.320;2023-01-29T16:40:15;4.50;99.90
29453;DHT22;16424;50.956;5.320;2023-01-29T16:42:41;4.60;99.90
29453;DHT22;16424;50.956;5.320;2023-01-29T16:45:25;4.50;99.90
29453;DHT22;16424;50.956;5.320;2023-01-29T16:48:25;4.60;99.90
29453;DHT22;16424;50.956;5.320;2023-01-29T16:51:05;4.70;99.90
29453;DHT22;16424;50.956;5.320;2023-01-29T16:53:31;4.60;99.90
29453;DHT22;16424;50.956;5.320;2023-01-29T16:56:03;4.60;99.90
29453;DHT22;16424;50.956;5.320;2023-01-29T16:58:30;4.50;99.90
29453;DHT22;16424;50.956;5.320;2023-01-29T17:00:59;4.50;99.90
29453;DHT22;16424;50.956;5.320;2023-01-29T17:03:26;4.40;99.90
29453;DHT22;16424;50.956;5.320;2023-01-29T17:05:53;4.30;99.90
29453;DHT22;16424;50.956;5.320;2023-01-29T17:08:31;4.30;99.90
29453;DHT22;16424;50.956;5.320;2023-01-29T17:10:58;4.40;99.90
29453;DHT22;16424;50.956;5.320;2023-01-29T17:13:41;4.40;99.90
29453;DHT22;16424;50.956;5.320;2023-01-29T17:18:41;4.40;99.90
29453;DHT22;16424;50.956;5.320;2023-01-29T17:21:06;4.40;99.90
29453;DHT22;16424;50.956;5.320;2023-01-29T17:23:32;4.20;99.90
29453;DHT22;16424;50.956;5.320;2023-01-29T17:25:58;4.20;99.90
29453;DHT22;16424;50.956;5.320;2023-01-29T17:28:24;4.30;99.90
29453;DHT22;16424;50.956;5.320;2023-01-29T17:30:50;4.40;99.90
29453;DHT22;16424;50.956;5.320;2023-01-29T17:33:17;4.50;99.90
29453;DHT22;16424;50.956;5.320;2023-01-29T17:35:55;4.30;99.90
29453;DHT22;16424;50.956;5.320;2023-01-29T17:38:21;4.20;99.90
29453;DHT22;16424;50.956;5.320;2023-01-29T17:41:10;4.20;99.90
29453;DHT22;16424;50.956;5.320;2023-01-29T17:43:36;4.30;99.90
29453;DHT22;16424;50.956;5.320;2023-01-29T17:46:02;4.40;99.90
29453;DHT22;16424;50.956;5.320;2023-01-29T17:48:29;4.50;99.90
29453;DHT22;16424;50.956;5.320;2023-01-29T17:50:57;4.50;99.90
29453;DHT22;16424;50.956;5.320;2023-01-29T17:53:24;4.40;99.90
29453;DHT22;16424;50.956;5.320;2023-01-29T17:55:49;4.30;99.90
29453;DHT22;16424;50.956;5.320;2023-01-29T17:58:21;4.40;99.90
29453;DHT22;16424;50.956;5.320;2023-01-29T18:00:47;4.50;99.90
29453;DHT22;16424;50.956;5.320;2023-01-29T18:03:13;4.60;99.90
29453;DHT22;16424;50.956;5.320;2023-01-29T18:05:40;4.50;99.90
29453;DHT22;16424;50.956;5.320;2023-01-29T18:08:28;4.40;99.90
29453;DHT22;16424;50.956;5.320;2023-01-29T18:10:55;4.50;99.90
29453;DHT22;16424;50.956;5.320;2023-01-29T18:13:21;4.40;99.90
29453;DHT22;16424;50.956;5.320;2023-01-29T18:15:47;4.50;99.90
29453;DHT22;16424;50.956;5.320;2023-01-29T18:18:16;4.50;99.90
29453;DHT22;16424;50.956;5.320;2023-01-29T18:20:43;4.70;99.90
29453;DHT22;16424;50.956;5.320;2023-01-29T18:23:10;4.40;99.90
29453;DHT22;16424;50.956;5.320;2023-01-29T18:25:36;4.60;99.90
29453;DHT22;16424;50.956;5.320;2023-01-29T18:28:02;4.30;99.90
29453;DHT22;16424;50.956;5.320;2023-01-29T18:30:28;4.20;99.90